sensor_id;sensor_type;location;lat;lon;timestamp;temperature;humidity
45323;DHT22;31382;50.200;8.674;2022-08-27T00:01:01;21.90;99.90
45323;DHT22;31382;50.200;8.674;2022-08-27T00:06:14;21.90;99.90
45323;DHT22;31382;50.200;8.674;2022-08-27T00:11:18;21.90;99.90
45323;DHT22;31382;50.200;8.674;2022-08-27T00:16:21;21.80;99.90
45323;DHT22;31382;50.200;8.674;2022-08-27T00:21:24;21.80;99.90
45323;DHT22;31382;50.200;8.674;2022-08-27T00:26:27;21.80;99.90
45323;DHT22;31382;50.200;8.674;2022-08-27T00:31:30;21.80;99.90
45323;DHT22;31382;50.200;8.674;2022-08-27T00:36:32;21.80;99.90
45323;DHT22;31382;50.200;8.674;2022-08-27T00:41:34;21.70;99.90
45323;DHT22;31382;50.200;8.674;2022-08-27T00:46:46;21.60;99.90
45323;DHT22;31382;50.200;8.674;2022-08-27T00:51:56;21.50;99.90
45323;DHT22;31382;50.200;8.674;2022-08-27T00:57:01;21.60;99.90
45323;DHT22;31382;50.200;8.674;2022-08-27T01:02:07;21.60;99.90
45323;DHT22;31382;50.200;8.674;2022-08-27T01:07:22;21.60;99.90
45323;DHT22;31382;50.200;8.674;2022-08-27T01:12:30;21.50;99.90
45323;DHT22;31382;50.200;8.674;2022-08-27T01:17:36;21.60;99.90
45323;DHT22;31382;50.200;8.674;2022-08-27T01:27:52;21.50;99.90
45323;DHT22;31382;50.200;8.674;2022-08-27T01:32:54;21.60;99.90
45323;DHT22;31382;50.200;8.674;2022-08-27T01:37:56;21.50;99.90
45323;DHT22;31382;50.200;8.674;2022-08-27T01:42:59;21.50;99.90
45323;DHT22;31382;50.200;8.674;2022-08-27T01:48:02;21.50;99.90
45323;DHT22;31382;50.200;8.674;2022-08-27T01:53:12;21.40;99.90
45323;DHT22;31382;50.200;8.674;2022-08-27T01:58:20;21.40;99.90
45323;DHT22;31382;50.200;8.674;2022-08-27T02:03:23;21.40;99.90
45323;DHT22;31382;50.200;8.674;2022-08-27T02:08:25;21.40;99.90
45323;DHT22;31382;50.200;8.674;2022-08-27T02:13:27;21.50;99.90
45323;DHT22;31382;50.200;8.674;2022-08-27T02:18:29;21.40;99.90
45323;DHT22;31382;50.200;8.674;2022-08-27T02:23:31;21.40;99.90
45323;DHT22;31382;50.200;8.674;2022-08-27T02:28:34;21.50;99.90
45323;DHT22;31382;50.200;8.674;2022-08-27T02:33:36;21.40;99.90
45323;DHT22;31382;50.200;8.674;2022-08-27T02:38:38;21.40;99.90
45323;DHT22;31382;50.200;8.674;2022-08-27T02:43:40;21.30;99.90
45323;DHT22;31382;50.200;8.674;2022-08-27T02:48:42;21.30;99.90
45323;DHT22;31382;50.200;8.674;2022-08-27T02:53:45;21.20;99.90
45323;DHT22;31382;50.200;8.674;2022-08-27T02:58:47;21.20;99.90
45323;DHT22;31382;50.200;8.674;2022-08-27T03:03:49;21.20;99.90
45323;DHT22;31382;50.200;8.674;2022-08-27T03:08:51;21.10;99.90
45323;DHT22;31382;50.200;8.674;2022-08-27T03:13:56;21.10;99.90
45323;DHT22;31382;50.200;8.674;2022-08-27T03:18:59;21.10;99.90
45323;DHT22;31382;50.200;8.674;2022-08-27T03:24:02;21.10;99.90
45323;DHT22;31382;50.200;8.674;2022-08-27T03:29:12;21.10;99.90
45323;DHT22;31382;50.200;8.674;2022-08-27T03:34:14;21.10;99.90
45323;DHT22;31382;50.200;8.674;2022-08-27T03:39:20;21.00;99.90
45323;DHT22;31382;50.200;8.674;2022-08-27T03:44:23;21.00;99.90
45323;DHT22;31382;50.200;8.674;2022-08-27T03:49:25;20.90;99.90
45323;DHT22;31382;50.200;8.674;2022-08-27T03:54:29;20.90;99.90
45323;DHT22;31382;50.200;8.674;2022-08-27T03:59:32;20.80;99.90
45323;DHT22;31382;50.200;8.674;2022-08-27T04:04:34;20.70;99.90
45323;DHT22;31382;50.200;8.674;2022-08-27T04:09:36;20.70;99.90
45323;DHT22;31382;50.200;8.674;2022-08-27T04:14:38;20.60;99.90
45323;DHT22;31382;50.200;8.674;2022-08-27T04:19:40;20.60;99.90
45323;DHT22;31382;50.200;8.674;2022-08-27T04:24:49;20.60;99.90
45323;DHT22;31382;50.200;8.674;2022-08-27T04:29:55;20.60;99.90
45323;DHT22;31382;50.200;8.674;2022-08-27T04:34:58;20.60;99.90
45323;DHT22;31382;50.200;8.674;2022-08-27T04:40:00;20.60;99.90
45323;DHT22;31382;50.200;8.674;2022-08-27T04:45:03;20.70;99.90
45323;DHT22;31382;50.200;8.674;2022-08-27T04:50:06;20.60;99.90
45323;DHT22;31382;50.200;8.674;2022-08-27T04:55:09;20.70;99.90
45323;DHT22;31382;50.200;8.674;2022-08-27T05:00:20;20.80;99.90
45323;DHT22;31382;50.200;8.674;2022-08-27T05:05:45;20.80;99.90
45323;DHT22;31382;50.200;8.674;2022-08-27T05:10:50;20.80;99.90
45323;DHT22;31382;50.200;8.674;2022-08-27T05:16:00;20.80;99.90
45323;DHT22;31382;50.200;8.674;2022-08-27T05:21:04;20.80;99.90
45323;DHT22;31382;50.200;8.674;2022-08-27T05:26:07;20.80;99.90
45323;DHT22;31382;50.200;8.674;2022-08-27T05:31:11;20.90;99.90
45323;DHT22;31382;50.200;8.674;2022-08-27T05:36:20;20.90;99.90
45323;DHT22;31382;50.200;8.674;2022-08-27T05:41:25;21.00;99.90
45323;DHT22;31382;50.200;8.674;2022-08-27T05:46:37;20.90;99.90
45323;DHT22;31382;50.200;8.674;2022-08-27T05:51:40;20.80;99.90
45323;DHT22;31382;50.200;8.674;2022-08-27T05:56:42;20.90;99.90
45323;DHT22;31382;50.200;8.674;2022-08-27T06:01:47;21.00;99.90
45323;DHT22;31382;50.200;8.674;2022-08-27T06:06:50;20.90;99.90
45323;DHT22;31382;50.200;8.674;2022-08-27T06:11:53;21.00;99.90
45323;DHT22;31382;50.200;8.674;2022-08-27T06:16:58;21.10;99.90
45323;DHT22;31382;50.200;8.674;2022-08-27T06:22:00;21.10;99.90
45323;DHT22;31382;50.200;8.674;2022-08-27T06:27:13;21.10;99.90
45323;DHT22;31382;50.200;8.674;2022-08-27T06:32:16;21.20;99.90
45323;DHT22;31382;50.200;8.674;2022-08-27T06:37:19;21.30;99.90
45323;DHT22;31382;50.200;8.674;2022-08-27T06:42:21;21.50;99.90
45323;DHT22;31382;50.200;8.674;2022-08-27T06:47:24;21.50;99.90
45323;DHT22;31382;50.200;8.674;2022-08-27T06:52:26;21.50;99.90
45323;DHT22;31382;50.200;8.674;2022-08-27T06:57:28;21.40;99.90
45323;DHT22;31382;50.200;8.674;2022-08-27T07:02:30;21.40;99.90
45323;DHT22;31382;50.200;8.674;2022-08-27T07:07:33;21.40;99.90
45323;DHT22;31382;50.200;8.674;2022-08-27T07:12:44;21.50;99.90
45323;DHT22;31382;50.200;8.674;2022-08-27T07:17:46;21.50;99.90
45323;DHT22;31382;50.200;8.674;2022-08-27T07:22:49;21.50;99.90
45323;DHT22;31382;50.200;8.674;2022-08-27T07:27:51;21.60;99.90
45323;DHT22;31382;50.200;8.674;2022-08-27T07:32:53;21.50;99.90
45323;DHT22;31382;50.200;8.674;2022-08-27T07:37:55;21.60;99.90
45323;DHT22;31382;50.200;8.674;2022-08-27T07:42:57;21.70;99.90
45323;DHT22;31382;50.200;8.674;2022-08-27T07:48:17;21.80;99.90
45323;DHT22;31382;50.200;8.674;2022-08-27T07:53:20;22.10;99.90
45323;DHT22;31382;50.200;8.674;2022-08-27T07:58:22;22.20;99.90
45323;DHT22;31382;50.200;8.674;2022-08-27T08:03:25;22.40;99.90
45323;DHT22;31382;50.200;8.674;2022-08-27T08:08:27;22.60;99.90
45323;DHT22;31382;50.200;8.674;2022-08-27T08:13:30;22.80;99.90
45323;DHT22;31382;50.200;8.674;2022-08-27T08:18:33;23.00;99.90
45323;DHT22;31382;50.200;8.674;2022-08-27T08:23:36;23.20;99.90
45323;DHT22;31382;50.200;8.674;2022-08-27T08:28:39;23.20;99.90
45323;DHT22;31382;50.200;8.674;2022-08-27T08:33:41;23.20;99.90
45323;DHT22;31382;50.200;8.674;2022-08-27T08:38:45;23.50;99.90
45323;DHT22;31382;50.200;8.674;2022-08-27T08:43:48;23.50;99.90
45323;DHT22;31382;50.200;8.674;2022-08-27T08:48:56;23.50;99.90
45323;DHT22;31382;50.200;8.674;2022-08-27T08:54:04;23.60;99.90
45323;DHT22;31382;50.200;8.674;2022-08-27T08:59:13;23.80;99.90
45323;DHT22;31382;50.200;8.674;2022-08-27T09:04:16;24.00;99.90
45323;DHT22;31382;50.200;8.674;2022-08-27T09:09:26;24.00;99.90
45323;DHT22;31382;50.200;8.674;2022-08-27T09:14:40;24.00;99.90
45323;DHT22;31382;50.200;8.674;2022-08-27T09:19:47;23.90;99.90
45323;DHT22;31382;50.200;8.674;2022-08-27T09:30:15;24.20;99.90
45323;DHT22;31382;50.200;8.674;2022-08-27T09:35:20;24.50;99.90
45323;DHT22;31382;50.200;8.674;2022-08-27T09:40:31;24.60;99.90
45323;DHT22;31382;50.200;8.674;2022-08-27T09:45:34;24.70;99.90
45323;DHT22;31382;50.200;8.674;2022-08-27T09:50:41;24.70;99.90
45323;DHT22;31382;50.200;8.674;2022-08-27T09:55:48;24.80;99.90
45323;DHT22;31382;50.200;8.674;2022-08-27T10:01:24;24.90;99.90
45323;DHT22;31382;50.200;8.674;2022-08-27T10:06:28;25.00;99.90
45323;DHT22;31382;50.200;8.674;2022-08-27T10:11:42;25.20;99.90
45323;DHT22;31382;50.200;8.674;2022-08-27T10:27:28;25.40;99.90
45323;DHT22;31382;50.200;8.674;2022-08-27T10:49:05;26.80;99.90
45323;DHT22;31382;50.200;8.674;2022-08-27T10:59:50;27.10;99.90
45323;DHT22;31382;50.200;8.674;2022-08-27T11:05:08;27.10;99.90
45323;DHT22;31382;50.200;8.674;2022-08-27T11:10:27;27.10;99.90
45323;DHT22;31382;50.200;8.674;2022-08-27T11:15:33;27.20;99.90
45323;DHT22;31382;50.200;8.674;2022-08-27T11:20:55;27.00;99.90
45323;DHT22;31382;50.200;8.674;2022-08-27T11:26:03;26.70;99.90
45323;DHT22;31382;50.200;8.674;2022-08-27T11:31:17;26.80;99.90
45323;DHT22;31382;50.200;8.674;2022-08-27T11:41:42;26.70;99.90
45323;DHT22;31382;50.200;8.674;2022-08-27T11:46:55;26.60;99.90
45323;DHT22;31382;50.200;8.674;2022-08-27T11:52:01;26.60;99.90
45323;DHT22;31382;50.200;8.674;2022-08-27T11:57:05;26.40;99.90
45323;DHT22;31382;50.200;8.674;2022-08-27T12:02:22;26.40;99.90
45323;DHT22;31382;50.200;8.674;2022-08-27T12:07:28;26.30;99.90
45323;DHT22;31382;50.200;8.674;2022-08-27T12:12:47;26.20;99.90
45323;DHT22;31382;50.200;8.674;2022-08-27T12:18:20;26.30;99.90
45323;DHT22;31382;50.200;8.674;2022-08-27T12:28:43;26.40;99.90
45323;DHT22;31382;50.200;8.674;2022-08-27T12:33:47;26.40;99.90
45323;DHT22;31382;50.200;8.674;2022-08-27T12:38:53;26.30;99.90
45323;DHT22;31382;50.200;8.674;2022-08-27T12:44:22;26.30;99.90
45323;DHT22;31382;50.200;8.674;2022-08-27T12:49:34;26.20;99.90
45323;DHT22;31382;50.200;8.674;2022-08-27T12:55:03;26.10;99.90
45323;DHT22;31382;50.200;8.674;2022-08-27T13:00:07;26.10;99.90
45323;DHT22;31382;50.200;8.674;2022-08-27T13:05:12;26.00;99.90
45323;DHT22;31382;50.200;8.674;2022-08-27T13:10:26;26.10;99.90
45323;DHT22;31382;50.200;8.674;2022-08-27T13:15:29;26.40;99.90
45323;DHT22;31382;50.200;8.674;2022-08-27T13:20:36;26.60;99.90
45323;DHT22;31382;50.200;8.674;2022-08-27T13:25:39;27.00;99.90
45323;DHT22;31382;50.200;8.674;2022-08-27T13:30:44;27.10;99.90
45323;DHT22;31382;50.200;8.674;2022-08-27T13:35:46;27.70;99.90
45323;DHT22;31382;50.200;8.674;2022-08-27T13:40:57;28.20;99.30
45323;DHT22;31382;50.200;8.674;2022-08-27T13:46:02;28.30;99.30
45323;DHT22;31382;50.200;8.674;2022-08-27T13:51:05;28.40;98.70
45323;DHT22;31382;50.200;8.674;2022-08-27T13:56:10;28.50;98.00
45323;DHT22;31382;50.200;8.674;2022-08-27T14:01:15;28.80;98.00
45323;DHT22;31382;50.200;8.674;2022-08-27T14:06:32;28.70;97.60
45323;DHT22;31382;50.200;8.674;2022-08-27T14:11:36;28.00;97.70
45323;DHT22;31382;50.200;8.674;2022-08-27T14:16:39;27.20;98.40
45323;DHT22;31382;50.200;8.674;2022-08-27T14:21:41;27.20;98.60
45323;DHT22;31382;50.200;8.674;2022-08-27T14:26:54;27.10;98.90
45323;DHT22;31382;50.200;8.674;2022-08-27T14:32:02;26.90;98.80
45323;DHT22;31382;50.200;8.674;2022-08-27T14:37:04;26.60;99.20
45323;DHT22;31382;50.200;8.674;2022-08-27T14:42:07;26.50;99.70
45323;DHT22;31382;50.200;8.674;2022-08-27T14:47:11;26.50;99.70
45323;DHT22;31382;50.200;8.674;2022-08-27T14:52:14;26.40;99.90
45323;DHT22;31382;50.200;8.674;2022-08-27T14:57:16;26.20;99.80
45323;DHT22;31382;50.200;8.674;2022-08-27T15:02:18;26.20;99.90
45323;DHT22;31382;50.200;8.674;2022-08-27T15:07:21;26.10;99.90
45323;DHT22;31382;50.200;8.674;2022-08-27T15:12:24;26.00;99.90
45323;DHT22;31382;50.200;8.674;2022-08-27T15:17:27;26.00;99.90
45323;DHT22;31382;50.200;8.674;2022-08-27T15:22:38;25.90;99.90
45323;DHT22;31382;50.200;8.674;2022-08-27T15:27:44;26.00;99.90
45323;DHT22;31382;50.200;8.674;2022-08-27T15:32:47;26.30;99.90
45323;DHT22;31382;50.200;8.674;2022-08-27T15:37:49;26.20;99.90
45323;DHT22;31382;50.200;8.674;2022-08-27T15:42:55;26.20;99.90
45323;DHT22;31382;50.200;8.674;2022-08-27T15:47:58;26.30;99.90
45323;DHT22;31382;50.200;8.674;2022-08-27T15:53:04;26.40;99.90
45323;DHT22;31382;50.200;8.674;2022-08-27T15:58:07;26.40;99.90
45323;DHT22;31382;50.200;8.674;2022-08-27T16:03:13;26.40;99.90
45323;DHT22;31382;50.200;8.674;2022-08-27T16:08:30;26.40;99.90
45323;DHT22;31382;50.200;8.674;2022-08-27T16:13:38;26.10;99.90
45323;DHT22;31382;50.200;8.674;2022-08-27T16:18:41;25.90;99.90
45323;DHT22;31382;50.200;8.674;2022-08-27T16:23:43;26.00;99.90
45323;DHT22;31382;50.200;8.674;2022-08-27T16:28:46;25.80;99.90
45323;DHT22;31382;50.200;8.674;2022-08-27T16:33:48;25.60;99.90
45323;DHT22;31382;50.200;8.674;2022-08-27T16:38:50;25.60;99.90
45323;DHT22;31382;50.200;8.674;2022-08-27T16:43:52;25.50;99.90
45323;DHT22;31382;50.200;8.674;2022-08-27T16:48:54;25.40;99.90
45323;DHT22;31382;50.200;8.674;2022-08-27T16:54:15;25.30;99.90
45323;DHT22;31382;50.200;8.674;2022-08-27T16:59:17;25.10;99.90
45323;DHT22;31382;50.200;8.674;2022-08-27T17:04:19;24.90;99.90
45323;DHT22;31382;50.200;8.674;2022-08-27T17:09:32;24.70;99.90
45323;DHT22;31382;50.200;8.674;2022-08-27T17:14:35;24.60;99.90
45323;DHT22;31382;50.200;8.674;2022-08-27T17:19:38;24.30;99.90
45323;DHT22;31382;50.200;8.674;2022-08-27T17:24:40;24.10;99.90
45323;DHT22;31382;50.200;8.674;2022-08-27T17:29:42;24.00;99.90
45323;DHT22;31382;50.200;8.674;2022-08-27T17:34:44;23.80;99.90
45323;DHT22;31382;50.200;8.674;2022-08-27T17:39:46;23.70;99.90
45323;DHT22;31382;50.200;8.674;2022-08-27T17:44:49;23.60;99.90
45323;DHT22;31382;50.200;8.674;2022-08-27T17:49:51;23.60;99.90
45323;DHT22;31382;50.200;8.674;2022-08-27T17:54:54;23.50;99.90
45323;DHT22;31382;50.200;8.674;2022-08-27T17:59:57;23.50;99.90
45323;DHT22;31382;50.200;8.674;2022-08-27T18:05:07;23.40;99.90
45323;DHT22;31382;50.200;8.674;2022-08-27T18:10:14;23.20;99.90
45323;DHT22;31382;50.200;8.674;2022-08-27T18:15:28;23.20;99.90
45323;DHT22;31382;50.200;8.674;2022-08-27T18:20:31;23.00;99.90
45323;DHT22;31382;50.200;8.674;2022-08-27T18:25:35;22.90;99.90
45323;DHT22;31382;50.200;8.674;2022-08-27T18:30:38;22.90;99.90
45323;DHT22;31382;50.200;8.674;2022-08-27T18:35:42;22.80;99.90
45323;DHT22;31382;50.200;8.674;2022-08-27T18:40:47;22.70;99.90
45323;DHT22;31382;50.200;8.674;2022-08-27T18:45:52;22.60;99.90
45323;DHT22;31382;50.200;8.674;2022-08-27T18:50:56;22.50;99.90
45323;DHT22;31382;50.200;8.674;2022-08-27T18:56:00;22.40;99.90
45323;DHT22;31382;50.200;8.674;2022-08-27T19:01:02;22.40;99.90
45323;DHT22;31382;50.200;8.674;2022-08-27T19:06:06;22.30;99.90
45323;DHT22;31382;50.200;8.674;2022-08-27T19:11:11;22.20;99.90
45323;DHT22;31382;50.200;8.674;2022-08-27T19:16:17;22.20;99.90
45323;DHT22;31382;50.200;8.674;2022-08-27T19:21:20;22.10;99.90
45323;DHT22;31382;50.200;8.674;2022-08-27T19:26:23;22.10;99.90
45323;DHT22;31382;50.200;8.674;2022-08-27T19:31:26;22.00;99.90
45323;DHT22;31382;50.200;8.674;2022-08-27T19:36:32;21.90;99.90
45323;DHT22;31382;50.200;8.674;2022-08-27T19:41:34;21.70;99.90
45323;DHT22;31382;50.200;8.674;2022-08-27T19:46:36;21.60;99.90
45323;DHT22;31382;50.200;8.674;2022-08-27T19:51:38;21.50;99.90
45323;DHT22;31382;50.200;8.674;2022-08-27T19:56:40;21.40;99.90
45323;DHT22;31382;50.200;8.674;2022-08-27T20:01:42;21.30;99.90
45323;DHT22;31382;50.200;8.674;2022-08-27T20:06:44;21.30;99.90
45323;DHT22;31382;50.200;8.674;2022-08-27T20:11:47;21.20;99.90
45323;DHT22;31382;50.200;8.674;2022-08-27T20:16:51;21.10;99.90
45323;DHT22;31382;50.200;8.674;2022-08-27T20:21:53;21.00;99.90
45323;DHT22;31382;50.200;8.674;2022-08-27T20:26:56;20.90;99.90
45323;DHT22;31382;50.200;8.674;2022-08-27T20:31:58;20.80;99.90
45323;DHT22;31382;50.200;8.674;2022-08-27T20:37:01;20.80;99.90
45323;DHT22;31382;50.200;8.674;2022-08-27T20:42:03;20.80;99.90
45323;DHT22;31382;50.200;8.674;2022-08-27T20:47:08;20.70;99.90
45323;DHT22;31382;50.200;8.674;2022-08-27T20:52:11;20.70;99.90
45323;DHT22;31382;50.200;8.674;2022-08-27T20:57:13;20.60;99.90
45323;DHT22;31382;50.200;8.674;2022-08-27T21:02:20;20.50;99.90
45323;DHT22;31382;50.200;8.674;2022-08-27T21:07:23;20.50;99.90
45323;DHT22;31382;50.200;8.674;2022-08-27T21:12:26;20.40;99.90
45323;DHT22;31382;50.200;8.674;2022-08-27T21:17:29;20.30;99.90
45323;DHT22;31382;50.200;8.674;2022-08-27T21:22:31;20.10;99.90
45323;DHT22;31382;50.200;8.674;2022-08-27T21:27:33;20.10;99.90
45323;DHT22;31382;50.200;8.674;2022-08-27T21:32:36;20.00;99.90
45323;DHT22;31382;50.200;8.674;2022-08-27T21:37:38;19.80;99.90
45323;DHT22;31382;50.200;8.674;2022-08-27T21:42:42;19.80;99.90
45323;DHT22;31382;50.200;8.674;2022-08-27T21:47:44;19.60;99.90
45323;DHT22;31382;50.200;8.674;2022-08-27T21:52:46;19.60;99.90
45323;DHT22;31382;50.200;8.674;2022-08-27T21:57:47;19.40;99.90
45323;DHT22;31382;50.200;8.674;2022-08-27T22:02:50;19.30;99.90
45323;DHT22;31382;50.200;8.674;2022-08-27T22:07:52;19.20;99.90
45323;DHT22;31382;50.200;8.674;2022-08-27T22:12:54;19.20;99.90
45323;DHT22;31382;50.200;8.674;2022-08-27T22:18:01;19.10;99.90
45323;DHT22;31382;50.200;8.674;2022-08-27T22:23:09;19.00;99.90
45323;DHT22;31382;50.200;8.674;2022-08-27T22:28:12;19.00;99.90
45323;DHT22;31382;50.200;8.674;2022-08-27T22:33:14;18.90;99.90
45323;DHT22;31382;50.200;8.674;2022-08-27T22:38:17;18.90;99.90
45323;DHT22;31382;50.200;8.674;2022-08-27T22:43:18;18.80;99.90
45323;DHT22;31382;50.200;8.674;2022-08-27T22:48:20;18.80;99.90
45323;DHT22;31382;50.200;8.674;2022-08-27T22:53:22;18.80;99.90
45323;DHT22;31382;50.200;8.674;2022-08-27T22:58:24;18.60;99.90
45323;DHT22;31382;50.200;8.674;2022-08-27T23:03:27;18.60;99.90
45323;DHT22;31382;50.200;8.674;2022-08-27T23:08:29;18.50;99.90
45323;DHT22;31382;50.200;8.674;2022-08-27T23:13:32;18.50;99.90
45323;DHT22;31382;50.200;8.674;2022-08-27T23:18:35;18.50;99.90
45323;DHT22;31382;50.200;8.674;2022-08-27T23:23:38;18.40;99.90
45323;DHT22;31382;50.200;8.674;2022-08-27T23:28:40;18.40;99.90
45323;DHT22;31382;50.200;8.674;2022-08-27T23:33:42;18.40;99.90
45323;DHT22;31382;50.200;8.674;2022-08-27T23:38:45;18.30;99.90
45323;DHT22;31382;50.200;8.674;2022-08-27T23:43:47;18.30;99.90
45323;DHT22;31382;50.200;8.674;2022-08-27T23:48:49;18.30;99.90
45323;DHT22;31382;50.200;8.674;2022-08-27T23:53:51;18.30;99.90
45323;DHT22;31382;50.200;8.674;2022-08-27T23:58:53;18.30;99.90
